Time;durP1;ratioP1;P1;durP2;ratioP2;P2;SDS_P1;SDS_P2;PMS_P1;PMS_P2;Temp;Humidity;BMP_temperature;BMP_pressure;BME280_temperature;BME280_humidity;BME280_pressure;Samples;Min_cycle;Max_cycle;Signal;HPM_P1;HPM_P2
2023/10/31 00:01:55;;;;;;;0.10;0.10;;;12.40;99.90;;;;;;5052544;28;20032;-71
2023/10/31 00:04:21;;;;;;;0.10;0.10;;;12.30;99.90;;;;;;5053625;28;20098;-71
2023/10/31 00:06:46;;;;;;;0.10;0.10;;;12.30;99.90;;;;;;5047882;28;20025;-71
2023/10/31 00:09:12;;;;;;;0.22;0.20;;;12.40;99.90;;;;;;5045127;28;20029;-71
2023/10/31 00:11:38;;;;;;;0.32;0.30;;;12.40;99.90;;;;;;5039828;28;20109;-71
2023/10/31 00:14:04;;;;;;;0.57;0.30;;;12.40;99.90;;;;;;5044009;28;20029;-71
2023/10/31 00:16:29;;;;;;;0.10;0.10;;;12.30;99.90;;;;;;5051285;28;20033;-70
2023/10/31 00:18:55;;;;;;;0.38;0.38;;;12.30;99.90;;;;;;5045704;28;20021;-70
2023/10/31 00:21:21;;;;;;;0.10;0.10;;;12.30;99.90;;;;;;5048900;28;20128;-71
2023/10/31 00:23:48;;;;;;;0.20;0.20;;;12.20;99.90;;;;;;5048515;28;20044;-71
2023/10/31 00:26:15;;;;;;;0.28;0.10;;;12.20;99.90;;;;;;5047776;28;20483;-71
2023/10/31 00:28:41;;;;;;;0.00;0.00;;;12.30;99.90;;;;;;5047454;28;20036;-70
2023/10/31 00:31:08;;;;;;;0.30;0.13;;;12.30;99.90;;;;;;5047062;28;20041;-70
2023/10/31 00:33:34;;;;;;;0.00;0.00;;;12.30;99.90;;;;;;5044588;28;20051;-70
2023/10/31 00:36:01;;;;;;;0.30;0.30;;;12.30;99.90;;;;;;5050699;28;20029;-71
2023/10/31 00:38:28;;;;;;;0.30;0.20;;;12.30;99.90;;;;;;5050077;28;20033;-70
2023/10/31 00:40:56;;;;;;;0.45;0.30;;;12.30;99.90;;;;;;5050933;28;20087;-70
2023/10/31 00:43:22;;;;;;;0.30;0.30;;;12.20;99.90;;;;;;5052334;28;20782;-72
2023/10/31 00:45:47;;;;;;;0.13;0.13;;;12.30;99.90;;;;;;5050401;28;20021;-71
2023/10/31 00:48:13;;;;;;;0.00;0.00;;;12.30;99.90;;;;;;5047949;28;20044;-71
2023/10/31 00:50:39;;;;;;;0.45;0.10;;;12.20;99.90;;;;;;5051723;28;20507;-71
2023/10/31 00:53:05;;;;;;;0.65;0.15;;;12.10;99.90;;;;;;5034475;28;20071;-71
2023/10/31 00:55:30;;;;;;;0.88;0.30;;;12.10;99.90;;;;;;5050145;28;20029;-71
2023/10/31 00:57:56;;;;;;;0.57;0.40;;;12.00;99.90;;;;;;5046970;28;20022;-71
2023/10/31 01:00:22;;;;;;;0.20;0.20;;;11.90;99.90;;;;;;5050088;28;20082;-71
2023/10/31 01:02:48;;;;;;;0.20;0.15;;;11.90;99.90;;;;;;5050509;28;20036;-71
2023/10/31 01:05:13;;;;;;;0.10;0.10;;;11.90;99.90;;;;;;5052064;28;20116;-71
2023/10/31 01:07:39;;;;;;;0.10;0.10;;;11.90;99.90;;;;;;5047681;28;20088;-71
2023/10/31 01:10:05;;;;;;;0.10;0.10;;;11.90;99.90;;;;;;5043640;28;20099;-71
2023/10/31 01:12:32;;;;;;;0.20;0.20;;;11.90;99.90;;;;;;5049134;28;20566;-71
2023/10/31 01:15:01;;;;;;;0.10;0.05;;;11.90;99.90;;;;;;5047396;28;20026;-71
2023/10/31 01:17:26;;;;;;;0.38;0.30;;;11.90;99.90;;;;;;5049885;28;20143;-71
2023/10/31 01:19:52;;;;;;;0.10;0.10;;;11.80;99.90;;;;;;5052237;28;20029;-71
2023/10/31 01:22:20;;;;;;;0.75;0.47;;;11.80;99.90;;;;;;5033805;28;20052;-71
2023/10/31 01:24:46;;;;;;;0.10;0.10;;;11.80;99.90;;;;;;5047388;28;20481;-71
2023/10/31 01:27:11;;;;;;;0.43;0.32;;;11.80;99.90;;;;;;5041788;28;20075;-71
2023/10/31 01:29:37;;;;;;;0.03;0.03;;;11.70;99.90;;;;;;5050232;28;20029;-71
2023/10/31 01:32:03;;;;;;;0.30;0.30;;;11.60;99.90;;;;;;5050363;28;20033;-71
2023/10/31 01:34:29;;;;;;;0.05;0.05;;;11.60;99.90;;;;;;5058744;28;20438;-71
2023/10/31 01:36:55;;;;;;;0.10;0.10;;;11.50;99.90;;;;;;5046340;28;20164;-71
2023/10/31 01:39:20;;;;;;;0.10;0.10;;;11.50;99.90;;;;;;5045183;28;20033;-71
2023/10/31 01:41:46;;;;;;;0.17;0.17;;;11.40;99.90;;;;;;5041797;28;20033;-71
2023/10/31 01:44:12;;;;;;;0.35;0.30;;;11.40;99.90;;;;;;5048006;28;20342;-71
2023/10/31 01:46:40;;;;;;;0.32;0.20;;;11.40;99.90;;;;;;5050561;28;20082;-71
2023/10/31 01:49:06;;;;;;;0.25;0.25;;;11.40;99.90;;;;;;5051673;28;20025;-71
2023/10/31 01:51:32;;;;;;;0.30;0.28;;;11.40;99.90;;;;;;5050956;28;20083;-71
2023/10/31 01:53:58;;;;;;;0.20;0.20;;;11.40;99.90;;;;;;5047545;28;20017;-71
2023/10/31 01:56:25;;;;;;;0.10;0.10;;;11.40;99.90;;;;;;5044912;28;20039;-71
2023/10/31 01:58:52;;;;;;;0.25;0.25;;;11.40;99.90;;;;;;5046957;28;20084;-71
2023/10/31 02:01:19;;;;;;;0.57;0.10;;;11.30;99.90;;;;;;5046864;28;20432;-71
2023/10/31 02:03:44;;;;;;;0.13;0.13;;;11.30;99.90;;;;;;5046457;28;20025;-71
2023/10/31 02:06:10;;;;;;;0.00;0.00;;;11.20;99.90;;;;;;5042023;28;20080;-71
2023/10/31 02:08:36;;;;;;;0.10;0.10;;;11.20;99.90;;;;;;5053070;28;20056;-71
2023/10/31 02:11:03;;;;;;;0.30;0.30;;;11.20;99.90;;;;;;5052408;28;20061;-71
2023/10/31 02:13:29;;;;;;;0.28;0.20;;;11.20;99.90;;;;;;5017052;28;20419;-71
2023/10/31 02:15:55;;;;;;;0.47;0.30;;;11.10;99.90;;;;;;5046357;28;20149;-71
2023/10/31 02:18:21;;;;;;;0.10;0.10;;;11.00;99.90;;;;;;5040572;28;20032;-71
2023/10/31 02:20:47;;;;;;;0.13;0.13;;;11.00;99.90;;;;;;5032891;28;20044;-72
2023/10/31 02:23:16;;;;;;;0.20;0.20;;;11.00;99.90;;;;;;5036926;28;20025;-71
2023/10/31 02:25:41;;;;;;;0.32;0.32;;;10.90;99.90;;;;;;5037134;28;20033;-71
2023/10/31 02:28:07;;;;;;;0.45;0.35;;;10.90;99.90;;;;;;5029871;28;20025;-72
2023/10/31 02:30:34;;;;;;;0.10;0.10;;;10.90;99.90;;;;;;5060207;28;20030;-71
2023/10/31 02:33:03;;;;;;;0.30;0.25;;;10.90;99.90;;;;;;5028199;28;20017;-71
2023/10/31 02:35:29;;;;;;;0.35;0.20;;;10.80;99.90;;;;;;5038254;28;20025;-71
2023/10/31 02:37:55;;;;;;;0.20;0.20;;;10.70;99.90;;;;;;5029563;28;20507;-71
2023/10/31 02:40:20;;;;;;;1.05;0.40;;;10.70;99.90;;;;;;5046843;28;20029;-71
2023/10/31 02:42:46;;;;;;;0.20;0.20;;;10.70;99.90;;;;;;5031447;28;20119;-71
2023/10/31 02:45:12;;;;;;;5.50;1.45;;;10.60;99.90;;;;;;5039676;28;20036;-71
2023/10/31 02:47:38;;;;;;;0.30;0.30;;;10.60;99.90;;;;;;5049391;28;20032;-71
2023/10/31 02:50:05;;;;;;;0.20;0.15;;;10.60;99.90;;;;;;5040190;28;20041;-71
2023/10/31 02:52:31;;;;;;;0.20;0.20;;;10.70;99.90;;;;;;5039479;28;20033;-71
2023/10/31 02:54:56;;;;;;;1.83;0.38;;;10.80;99.90;;;;;;5049457;28;20020;-71
2023/10/31 02:57:22;;;;;;;0.45;0.35;;;10.80;99.90;;;;;;5049163;28;20155;-71
2023/10/31 02:59:48;;;;;;;0.47;0.28;;;10.90;99.90;;;;;;5045852;28;20037;-71
2023/10/31 03:02:14;;;;;;;0.10;0.10;;;11.00;99.90;;;;;;5049104;28;20128;-71
2023/10/31 03:04:39;;;;;;;0.10;0.10;;;11.00;99.90;;;;;;5049261;28;20033;-71
2023/10/31 03:07:05;;;;;;;0.15;0.10;;;11.10;99.90;;;;;;5035990;28;20053;-71
2023/10/31 03:09:31;;;;;;;0.30;0.20;;;11.10;99.90;;;;;;5040424;28;20102;-71
2023/10/31 03:11:56;;;;;;;0.47;0.32;;;11.10;99.90;;;;;;5049847;28;20017;-71
2023/10/31 03:14:22;;;;;;;2.03;0.60;;;11.10;99.90;;;;;;5038448;28;20068;-71
2023/10/31 03:16:48;;;;;;;0.60;0.38;;;11.20;99.90;;;;;;5032347;28;20021;-71
2023/10/31 03:19:14;;;;;;;4.10;0.30;;;11.20;99.90;;;;;;5042197;28;20045;-71
2023/10/31 03:21:39;;;;;;;0.22;0.20;;;11.10;99.90;;;;;;5044870;28;20449;-71
2023/10/31 03:24:06;;;;;;;0.52;0.30;;;11.10;99.90;;;;;;5052206;28;20035;-72
2023/10/31 03:26:31;;;;;;;6.57;0.93;;;11.10;99.90;;;;;;5033414;28;20040;-72
2023/10/31 03:28:57;;;;;;;0.10;0.10;;;11.00;99.90;;;;;;5036648;28;20029;-72
2023/10/31 03:31:24;;;;;;;0.30;0.30;;;10.90;99.90;;;;;;5047623;28;20413;-72
2023/10/31 03:33:51;;;;;;;0.45;0.40;;;10.90;99.90;;;;;;5039493;28;20029;-72
2023/10/31 03:36:17;;;;;;;0.20;0.20;;;11.00;99.90;;;;;;5038164;28;20025;-72
2023/10/31 03:38:43;;;;;;;0.30;0.17;;;11.00;99.90;;;;;;5029035;28;20435;-72
2023/10/31 03:41:09;;;;;;;1.20;0.30;;;11.00;99.90;;;;;;5054984;28;20044;-72
2023/10/31 03:43:35;;;;;;;0.10;0.10;;;11.00;99.90;;;;;;5036698;28;20040;-72
2023/10/31 03:46:00;;;;;;;1.35;0.50;;;10.90;99.90;;;;;;5037696;28;20041;-72
2023/10/31 03:48:26;;;;;;;0.10;0.10;;;11.00;99.90;;;;;;5037132;28;20025;-73
2023/10/31 03:50:52;;;;;;;0.43;0.20;;;11.00;99.90;;;;;;5035869;28;20403;-72
2023/10/31 03:53:18;;;;;;;1.10;0.70;;;11.00;99.90;;;;;;5040016;28;20086;-72
2023/10/31 03:55:44;;;;;;;0.90;0.47;;;11.00;99.90;;;;;;5041161;28;20536;-72
2023/10/31 03:58:10;;;;;;;1.95;0.45;;;11.00;99.90;;;;;;5047584;28;20116;-72
2023/10/31 04:00:36;;;;;;;0.35;0.30;;;11.00;99.90;;;;;;5032281;28;20040;-71
2023/10/31 04:03:02;;;;;;;1.55;0.75;;;11.00;99.90;;;;;;5045410;28;20041;-73
2023/10/31 04:05:28;;;;;;;0.20;0.20;;;11.00;99.90;;;;;;5033011;28;20060;-72
2023/10/31 04:07:54;;;;;;;2.22;0.30;;;11.00;99.90;;;;;;5040095;28;20036;-71
2023/10/31 04:10:20;;;;;;;0.22;0.15;;;11.00;99.90;;;;;;5040960;28;20101;-72
2023/10/31 04:12:49;;;;;;;0.80;0.40;;;11.00;99.90;;;;;;5041664;28;20503;-71
2023/10/31 04:15:14;;;;;;;1.90;0.50;;;11.00;99.90;;;;;;5052768;28;20155;-71
2023/10/31 04:17:40;;;;;;;1.55;0.50;;;11.00;99.90;;;;;;5031292;28;20105;-72
2023/10/31 04:20:07;;;;;;;0.47;0.40;;;11.00;99.90;;;;;;5037964;28;20027;-71
2023/10/31 04:22:33;;;;;;;0.35;0.30;;;11.00;99.90;;;;;;5032224;28;20065;-73
2023/10/31 04:24:59;;;;;;;0.82;0.43;;;11.00;99.90;;;;;;5030854;28;20107;-71
2023/10/31 04:27:24;;;;;;;0.45;0.30;;;11.00;99.90;;;;;;5033860;28;20107;-71
2023/10/31 04:29:50;;;;;;;0.45;0.25;;;11.10;99.90;;;;;;5037745;28;20045;-72
2023/10/31 04:32:16;;;;;;;0.20;0.20;;;11.10;99.90;;;;;;5031978;28;20025;-72
2023/10/31 04:34:42;;;;;;;0.20;0.20;;;11.00;99.90;;;;;;5028503;28;20416;-72
2023/10/31 04:37:07;;;;;;;0.20;0.20;;;11.00;99.90;;;;;;5031664;28;20037;-73
2023/10/31 04:39:36;;;;;;;0.30;0.30;;;11.10;99.90;;;;;;5019742;28;20071;-72
2023/10/31 04:42:02;;;;;;;0.60;0.50;;;11.00;99.90;;;;;;5032298;28;20033;-72
2023/10/31 04:44:28;;;;;;;0.22;0.22;;;11.00;99.90;;;;;;5037353;28;20541;-72
2023/10/31 04:46:53;;;;;;;0.25;0.25;;;11.10;99.90;;;;;;5024428;28;20112;-72
2023/10/31 04:49:20;;;;;;;0.20;0.20;;;11.10;99.90;;;;;;5036235;28;20037;-72
2023/10/31 04:51:46;;;;;;;0.68;0.30;;;11.10;99.90;;;;;;5041094;28;20474;-71
2023/10/31 04:54:11;;;;;;;0.13;0.08;;;11.10;99.90;;;;;;5044501;28;20033;-71
2023/10/31 04:56:40;;;;;;;0.52;0.40;;;11.10;99.90;;;;;;5039819;28;20057;-71
2023/10/31 04:59:06;;;;;;;0.32;0.20;;;11.10;99.90;;;;;;5037745;28;20025;-71
2023/10/31 05:01:31;;;;;;;9.55;0.50;;;11.10;99.90;;;;;;5031524;28;20040;-72
2023/10/31 05:03:57;;;;;;;0.00;0.00;;;11.10;99.90;;;;;;5034374;28;20116;-72
2023/10/31 05:06:23;;;;;;;0.17;0.17;;;11.10;99.90;;;;;;5047660;28;20036;-72
2023/10/31 05:08:49;;;;;;;0.10;0.10;;;11.10;99.90;;;;;;5035793;28;20030;-72
2023/10/31 05:11:19;;;;;;;0.68;0.45;;;11.00;99.90;;;;;;5046282;28;20037;-72
2023/10/31 05:13:45;;;;;;;0.25;0.25;;;11.00;99.90;;;;;;5043395;28;20047;-72
2023/10/31 05:16:14;;;;;;;2.55;0.47;;;11.00;99.90;;;;;;5041120;28;20032;-72
2023/10/31 05:18:39;;;;;;;0.95;0.63;;;11.10;99.90;;;;;;5054378;28;20025;-72
2023/10/31 05:21:05;;;;;;;0.52;0.25;;;11.10;99.90;;;;;;5051675;28;20397;-71
2023/10/31 05:23:32;;;;;;;0.80;0.50;;;11.10;99.90;;;;;;5037163;28;20041;-71
2023/10/31 05:25:57;;;;;;;4.03;0.50;;;11.10;99.90;;;;;;5035049;28;20029;-72
2023/10/31 05:28:23;;;;;;;0.20;0.20;;;11.10;99.90;;;;;;5037190;28;20033;-71
2023/10/31 05:30:49;;;;;;;0.13;0.13;;;11.10;99.90;;;;;;5046688;28;20032;-71
2023/10/31 05:33:18;;;;;;;0.85;0.55;;;11.10;99.90;;;;;;5041679;28;20076;-71
2023/10/31 05:35:44;;;;;;;0.20;0.20;;;11.10;99.90;;;;;;5050346;28;20047;-71
2023/10/31 05:38:09;;;;;;;0.30;0.30;;;11.10;99.90;;;;;;5049786;28;20537;-72
2023/10/31 05:40:35;;;;;;;0.40;0.30;;;11.10;99.90;;;;;;5048782;28;20031;-72
2023/10/31 05:43:04;;;;;;;0.10;0.10;;;11.10;99.90;;;;;;5034170;28;20029;-72
2023/10/31 05:45:31;;;;;;;0.88;0.30;;;11.10;99.90;;;;;;5040325;28;20428;-71
2023/10/31 05:47:56;;;;;;;0.50;0.22;;;11.10;99.90;;;;;;5044384;28;20028;-72
2023/10/31 05:50:22;;;;;;;0.10;0.10;;;11.10;99.90;;;;;;5049467;28;20091;-72
2023/10/31 05:52:48;;;;;;;0.43;0.43;;;11.10;99.90;;;;;;5043934;28;20493;-72
2023/10/31 05:55:14;;;;;;;0.80;0.30;;;11.20;99.90;;;;;;5050433;28;20063;-72
2023/10/31 05:57:40;;;;;;;1.65;0.52;;;11.10;99.90;;;;;;5031441;28;20036;-72
2023/10/31 06:00:08;;;;;;;0.10;0.10;;;11.20;99.90;;;;;;5031947;28;20033;-72
2023/10/31 06:02:33;;;;;;;0.80;0.65;;;11.10;99.90;;;;;;5047262;28;20104;-72
2023/10/31 06:04:59;;;;;;;0.20;0.20;;;11.10;99.90;;;;;;5031119;28;20116;-72
2023/10/31 06:07:25;;;;;;;1.52;1.17;;;11.10;99.90;;;;;;5031885;28;20022;-71
2023/10/31 06:09:51;;;;;;;0.10;0.10;;;11.10;99.90;;;;;;5031669;28;20040;-71
2023/10/31 06:12:17;;;;;;;0.35;0.20;;;11.10;99.90;;;;;;5039647;28;20025;-69
2023/10/31 06:14:43;;;;;;;0.55;0.30;;;11.00;99.90;;;;;;5035584;28;20057;-68
2023/10/31 06:17:09;;;;;;;0.20;0.20;;;11.00;99.90;;;;;;5042103;28;20021;-69
2023/10/31 06:19:36;;;;;;;0.55;0.40;;;11.00;99.90;;;;;;5031964;28;20033;-68
2023/10/31 06:22:02;;;;;;;0.10;0.10;;;11.10;99.90;;;;;;5047843;28;20082;-68
2023/10/31 06:24:28;;;;;;;1.10;0.40;;;11.00;99.90;;;;;;5049180;28;20017;-69
2023/10/31 06:26:53;;;;;;;1.08;0.38;;;11.00;99.90;;;;;;5051842;28;20124;-68
2023/10/31 06:29:19;;;;;;;0.20;0.20;;;11.00;99.90;;;;;;5050905;28;20032;-68
2023/10/31 06:31:45;;;;;;;2.00;0.43;;;10.90;99.90;;;;;;5044822;28;20033;-69
2023/10/31 06:34:10;;;;;;;0.80;0.55;;;10.90;99.90;;;;;;5039664;28;20113;-69
2023/10/31 06:36:36;;;;;;;1.65;0.52;;;10.90;99.90;;;;;;5045352;28;20170;-69
2023/10/31 06:39:02;;;;;;;0.88;0.50;;;10.90;99.90;;;;;;5046815;28;20443;-69
2023/10/31 06:41:28;;;;;;;0.10;0.10;;;10.80;99.90;;;;;;5036807;28;20095;-69
2023/10/31 06:43:54;;;;;;;0.45;0.40;;;10.80;99.90;;;;;;5047882;28;20462;-68
2023/10/31 06:46:19;;;;;;;2.25;0.43;;;10.80;99.90;;;;;;5049765;28;20036;-69
2023/10/31 06:48:45;;;;;;;0.85;0.30;;;10.80;99.90;;;;;;5046490;28;20461;-69
2023/10/31 06:51:11;;;;;;;1.35;0.32;;;10.80;99.90;;;;;;5050974;28;20021;-69
2023/10/31 06:53:37;;;;;;;3.47;0.55;;;10.90;99.90;;;;;;5043283;28;20079;-69
2023/10/31 06:56:03;;;;;;;0.30;0.25;;;10.90;99.90;;;;;;5039460;28;20029;-69
2023/10/31 06:58:29;;;;;;;1.00;0.47;;;10.90;99.90;;;;;;5044264;28;20112;-70
2023/10/31 07:00:55;;;;;;;0.25;0.25;;;10.90;99.90;;;;;;5049274;28;20117;-71
2023/10/31 07:03:20;;;;;;;1.38;0.55;;;10.90;99.90;;;;;;5042650;28;20576;-69
2023/10/31 07:05:46;;;;;;;0.57;0.52;;;10.90;99.90;;;;;;5020114;28;20044;-69
2023/10/31 07:08:12;;;;;;;1.85;0.75;;;10.90;99.90;;;;;;5031989;28;20099;-69
2023/10/31 07:10:38;;;;;;;0.55;0.35;;;11.00;99.90;;;;;;5041824;28;20030;-70
2023/10/31 07:13:03;;;;;;;0.30;0.25;;;11.00;99.90;;;;;;5050593;28;20068;-68
2023/10/31 07:15:29;;;;;;;0.20;0.20;;;11.00;99.90;;;;;;5042808;28;20033;-68
2023/10/31 07:17:55;;;;;;;1.08;0.45;;;11.00;99.90;;;;;;5033716;28;20024;-70
2023/10/31 07:20:21;;;;;;;0.20;0.10;;;11.10;99.90;;;;;;5050450;28;20154;-69
2023/10/31 07:22:46;;;;;;;0.95;0.82;;;11.10;99.90;;;;;;5052565;28;20082;-69
2023/10/31 07:25:12;;;;;;;0.63;0.38;;;11.10;99.90;;;;;;5052218;28;20033;-69
2023/10/31 07:27:38;;;;;;;0.30;0.30;;;11.10;99.90;;;;;;5041850;28;20125;-70
2023/10/31 07:30:05;;;;;;;4.68;1.10;;;11.20;99.90;;;;;;5041766;28;20034;-68
2023/10/31 07:32:31;;;;;;;0.10;0.10;;;11.20;99.90;;;;;;5033924;28;20128;-70
2023/10/31 07:34:58;;;;;;;0.30;0.25;;;11.30;99.90;;;;;;5047284;28;20051;-68
2023/10/31 07:37:23;;;;;;;2.35;0.50;;;11.30;99.90;;;;;;5052571;28;20116;-67
2023/10/31 07:39:50;;;;;;;0.47;0.47;;;11.20;99.90;;;;;;5040188;28;20117;-68
2023/10/31 07:42:16;;;;;;;0.52;0.25;;;11.30;99.90;;;;;;5041716;28;20489;-68
2023/10/31 07:44:42;;;;;;;0.82;0.35;;;11.30;99.90;;;;;;5051619;28;20029;-68
2023/10/31 07:47:08;;;;;;;3.45;0.50;;;11.20;99.90;;;;;;5048290;28;20030;-68
2023/10/31 07:49:34;;;;;;;0.65;0.50;;;11.20;99.90;;;;;;5040341;28;20037;-68
2023/10/31 07:51:59;;;;;;;0.47;0.30;;;11.30;99.90;;;;;;5033449;28;20026;-68
2023/10/31 07:54:25;;;;;;;5.20;0.70;;;11.30;99.90;;;;;;5050462;28;20100;-69
2023/10/31 07:56:52;;;;;;;0.40;0.40;;;11.30;99.90;;;;;;5041197;28;20016;-67
2023/10/31 07:59:18;;;;;;;0.20;0.13;;;11.30;99.90;;;;;;5045998;28;20021;-68
2023/10/31 08:01:43;;;;;;;0.30;0.30;;;11.40;99.90;;;;;;5038616;28;20033;-66
2023/10/31 08:04:09;;;;;;;0.47;0.25;;;11.40;99.90;;;;;;5040336;28;20033;-68
2023/10/31 08:06:35;;;;;;;0.73;0.45;;;11.40;99.90;;;;;;5059591;28;20033;-66
2023/10/31 08:09:01;;;;;;;0.20;0.20;;;11.40;99.90;;;;;;5059427;28;20028;-67
2023/10/31 08:11:27;;;;;;;0.20;0.20;;;11.50;99.90;;;;;;5055010;28;20556;-69
2023/10/31 08:13:53;;;;;;;1.35;0.50;;;11.60;99.90;;;;;;5051950;28;20127;-70
2023/10/31 08:16:23;;;;;;;0.95;0.35;;;11.50;99.90;;;;;;5049384;28;20056;-68
2023/10/31 08:18:49;;;;;;;0.47;0.47;;;11.50;99.90;;;;;;5048495;28;20373;-69
2023/10/31 08:21:14;;;;;;;0.47;0.35;;;11.50;99.90;;;;;;5046952;28;20033;-70
2023/10/31 08:23:41;;;;;;;5.05;0.68;;;11.50;99.90;;;;;;5053996;28;20052;-70
2023/10/31 08:26:06;;;;;;;3.60;1.05;;;11.50;99.90;;;;;;5047145;28;20481;-69
2023/10/31 08:28:32;;;;;;;2.58;0.50;;;11.60;99.90;;;;;;5053082;28;20044;-69
2023/10/31 08:30:58;;;;;;;11.23;0.35;;;11.70;99.90;;;;;;5042351;28;20021;-70
2023/10/31 08:33:24;;;;;;;0.40;0.22;;;11.70;99.90;;;;;;5036144;28;20428;-69
2023/10/31 08:35:50;;;;;;;0.20;0.20;;;11.70;99.90;;;;;;5042239;28;20497;-70
2023/10/31 08:38:17;;;;;;;0.20;0.20;;;11.90;99.90;;;;;;5041745;28;20709;-70
2023/10/31 08:40:42;;;;;;;0.40;0.40;;;12.00;99.90;;;;;;5052623;28;20024;-70
2023/10/31 08:43:09;;;;;;;0.73;0.50;;;12.10;99.90;;;;;;5052512;28;20098;-68
2023/10/31 08:45:34;;;;;;;0.57;0.40;;;12.20;99.90;;;;;;5052200;28;20033;-74
2023/10/31 08:48:00;;;;;;;6.95;0.60;;;12.20;99.90;;;;;;5038829;28;20021;-70
2023/10/31 08:50:26;;;;;;;0.30;0.22;;;12.30;99.90;;;;;;5040046;28;20029;-70
2023/10/31 08:52:53;;;;;;;5.05;0.63;;;12.30;99.90;;;;;;5038448;28;20017;-70
2023/10/31 08:55:18;;;;;;;0.50;0.28;;;12.40;99.90;;;;;;5053983;28;20029;-70
2023/10/31 08:57:44;;;;;;;0.85;0.52;;;12.40;99.90;;;;;;5043080;28;20040;-69
2023/10/31 09:00:11;;;;;;;3.00;0.90;;;12.30;99.90;;;;;;5043723;28;20075;-68
2023/10/31 09:02:36;;;;;;;0.40;0.32;;;12.40;99.90;;;;;;5034616;28;20033;-70
2023/10/31 09:05:02;;;;;;;0.28;0.28;;;12.40;99.90;;;;;;5048623;28;20170;-70
2023/10/31 09:07:28;;;;;;;1.98;0.60;;;12.50;99.90;;;;;;5031961;28;20036;-69
2023/10/31 09:09:54;;;;;;;5.38;0.45;;;12.50;99.90;;;;;;5045741;28;20037;-71
2023/10/31 09:12:20;;;;;;;0.32;0.30;;;12.50;99.90;;;;;;5048005;28;20657;-69
2023/10/31 09:14:46;;;;;;;0.10;0.10;;;12.60;99.90;;;;;;5061156;28;20083;-70
2023/10/31 09:17:12;;;;;;;8.50;0.55;;;12.60;99.90;;;;;;5050968;28;20525;-69
2023/10/31 09:19:38;;;;;;;1.45;0.35;;;12.70;99.90;;;;;;5047392;28;20107;-69
2023/10/31 09:22:04;;;;;;;0.65;0.35;;;12.90;99.90;;;;;;5031494;28;20060;-69
2023/10/31 09:24:29;;;;;;;0.22;0.20;;;12.90;99.90;;;;;;5047437;28;20033;-70
2023/10/31 09:26:55;;;;;;;5.38;0.73;;;13.00;99.90;;;;;;5039480;28;20083;-70
2023/10/31 09:29:21;;;;;;;4.95;0.43;;;13.00;99.90;;;;;;5046525;28;20505;-70
2023/10/31 09:31:47;;;;;;;2.50;0.50;;;13.00;99.90;;;;;;5050591;28;20045;-69
2023/10/31 09:34:13;;;;;;;0.73;0.32;;;12.90;99.90;;;;;;5051292;28;20048;-70
2023/10/31 09:36:40;;;;;;;1.38;0.50;;;13.30;99.90;;;;;;5050148;28;20048;-69
2023/10/31 09:39:05;;;;;;;0.52;0.15;;;13.20;99.90;;;;;;5049439;28;20036;-70
2023/10/31 09:41:35;;;;;;;0.63;0.63;;;13.20;99.90;;;;;;5033292;28;20029;-76
2023/10/31 09:44:00;;;;;;;4.85;0.88;;;13.70;99.90;;;;;;5054811;28;20040;-77
2023/10/31 09:46:28;;;;;;;4.28;0.73;;;14.10;99.90;;;;;;5036832;28;20488;-68
2023/10/31 09:48:56;;;;;;;1.98;0.73;;;14.90;99.90;;;;;;5044661;28;20108;-69
2023/10/31 09:51:22;;;;;;;0.25;0.17;;;15.70;99.90;;;;;;5046224;28;20029;-72
2023/10/31 09:53:49;;;;;;;1.10;0.52;;;15.50;99.90;;;;;;5052145;28;20070;-71
2023/10/31 09:56:18;;;;;;;0.52;0.35;;;16.90;99.90;;;;;;5033617;28;20029;-70
2023/10/31 09:58:44;;;;;;;0.40;0.30;;;18.00;99.90;;;;;;5049271;28;20037;-72
2023/10/31 10:01:11;;;;;;;0.75;0.30;;;18.20;99.90;;;;;;5043424;28;20358;-69
2023/10/31 10:03:37;;;;;;;0.17;0.13;;;17.60;99.90;;;;;;5053184;28;20037;-70
2023/10/31 10:06:03;;;;;;;0.40;0.30;;;17.30;99.90;;;;;;5045223;28;20182;-70
2023/10/31 10:08:29;;;;;;;0.63;0.28;;;16.40;99.90;;;;;;5046793;28;20053;-71
2023/10/31 10:10:55;;;;;;;4.93;0.70;;;15.30;99.90;;;;;;5051233;28;20460;-70
2023/10/31 10:13:21;;;;;;;0.45;0.20;;;14.70;99.90;;;;;;5035531;28;20023;-70
2023/10/31 10:15:49;;;;;;;2.05;0.75;;;14.60;99.90;;;;;;5045162;28;20021;-69
2023/10/31 10:18:39;;;;;;;9.02;0.73;;;14.30;99.90;;;;;;5054577;28;20037;-69
2023/10/31 10:21:06;;;;;;;4.55;0.63;;;14.30;99.90;;;;;;5049585;28;20052;-70
2023/10/31 10:23:33;;;;;;;0.77;0.40;;;14.60;99.90;;;;;;5054901;28;20082;-70
2023/10/31 10:26:01;;;;;;;7.13;0.30;;;15.00;99.90;;;;;;5054423;28;20527;-71
2023/10/31 10:28:30;;;;;;;0.28;0.10;;;14.80;99.90;;;;;;5037004;28;20065;-70
2023/10/31 10:30:56;;;;;;;0.35;0.35;;;14.50;99.90;;;;;;5048232;28;20029;-70
2023/10/31 10:33:22;;;;;;;0.55;0.35;;;14.20;99.90;;;;;;5035192;28;20033;-72
2023/10/31 10:35:48;;;;;;;0.93;0.47;;;14.10;99.90;;;;;;5046206;28;20029;-71
2023/10/31 10:38:17;;;;;;;1.05;0.40;;;14.00;99.90;;;;;;5052870;28;20025;-70
2023/10/31 10:40:48;;;;;;;3.53;0.40;;;13.90;99.90;;;;;;5054410;28;20067;-71
2023/10/31 10:43:24;;;;;;;0.43;0.40;;;13.90;99.90;;;;;;5045819;28;20041;-70
2023/10/31 10:45:56;;;;;;;1.63;0.30;;;13.80;99.90;;;;;;5029034;28;20041;-69
2023/10/31 10:48:24;;;;;;;0.38;0.20;;;13.90;99.90;;;;;;5046122;28;20183;-71
2023/10/31 10:51:53;;;;;;;0.55;0.40;;;13.80;99.90;;;;;;5036690;28;20063;-71
2023/10/31 10:54:35;;;;;;;7.78;0.57;;;13.90;99.90;;;;;;5047340;28;20037;-70
2023/10/31 10:57:19;;;;;;;0.82;0.43;;;13.90;99.90;;;;;;5046802;28;20078;-70
2023/10/31 10:59:51;;;;;;;2.30;0.55;;;14.00;99.90;;;;;;5039496;28;20061;-70
2023/10/31 11:02:18;;;;;;;1.65;0.70;;;13.90;99.90;;;;;;5051061;28;20248;-70
2023/10/31 11:04:44;;;;;;;11.48;0.93;;;14.00;99.90;;;;;;5051381;28;20041;-69
2023/10/31 11:07:11;;;;;;;5.25;0.38;;;14.20;99.90;;;;;;5046592;28;20037;-70
2023/10/31 11:09:38;;;;;;;3.72;1.17;;;14.20;99.90;;;;;;5052716;28;20366;-70
2023/10/31 11:12:04;;;;;;;1.45;0.30;;;14.20;99.90;;;;;;5045596;28;20025;-70
2023/10/31 11:14:32;;;;;;;1.10;0.22;;;14.30;99.90;;;;;;5063835;28;20078;-69
2023/10/31 11:17:06;;;;;;;4.57;0.45;;;14.20;99.90;;;;;;5050661;28;20028;-69
2023/10/31 11:19:33;;;;;;;2.30;0.65;;;14.20;99.90;;;;;;5034529;28;20052;-70
2023/10/31 11:22:01;;;;;;;5.70;0.68;;;14.20;99.90;;;;;;5043390;28;20047;-71
2023/10/31 11:24:36;;;;;;;0.30;0.30;;;14.30;99.90;;;;;;5055377;28;20108;-68
2023/10/31 11:27:05;;;;;;;2.17;0.17;;;14.20;99.90;;;;;;5040163;28;20057;-71
2023/10/31 11:29:32;;;;;;;1.85;0.77;;;14.10;99.90;;;;;;5033637;28;20116;-70
2023/10/31 11:31:59;;;;;;;4.65;0.77;;;14.00;99.90;;;;;;5056695;28;20029;-71
2023/10/31 11:34:30;;;;;;;11.38;2.03;;;14.50;99.90;;;;;;5034185;28;20075;-70
2023/10/31 11:37:34;;;;;;;0.10;0.10;;;15.10;99.90;;;;;;5050976;28;20503;-70
2023/10/31 11:40:18;;;;;;;1.02;0.52;;;15.60;99.90;;;;;;5036394;28;20484;-70
2023/10/31 11:42:52;;;;;;;1.35;0.52;;;15.90;99.90;;;;;;5041027;28;20108;-72
2023/10/31 11:45:43;;;;;;;5.82;0.77;;;16.10;99.90;;;;;;5051996;28;20079;-71
2023/10/31 11:48:10;;;;;;;0.30;0.20;;;15.90;99.90;;;;;;5047056;28;20037;-72
2023/10/31 11:50:37;;;;;;;0.65;0.40;;;15.40;99.90;;;;;;5052892;28;20044;-71
2023/10/31 11:53:12;;;;;;;0.20;0.20;;;15.20;99.90;;;;;;5051593;28;20397;-70
2023/10/31 11:55:44;;;;;;;0.85;0.22;;;15.00;99.90;;;;;;5050184;28;20481;-72
2023/10/31 11:58:20;;;;;;;0.45;0.40;;;15.00;99.90;;;;;;5051225;28;20063;-70
2023/10/31 12:00:49;;;;;;;4.28;0.65;;;15.00;99.90;;;;;;5044923;28;20135;-71
2023/10/31 12:03:20;;;;;;;0.32;0.28;;;16.30;99.90;;;;;;5051276;28;20122;-69
2023/10/31 12:06:03;;;;;;;1.00;0.30;;;17.20;99.90;;;;;;5039213;28;20036;-69
2023/10/31 12:08:30;;;;;;;0.10;0.10;;;16.80;99.90;;;;;;5048650;28;20087;-71
2023/10/31 12:11:07;;;;;;;0.70;0.40;;;16.80;99.90;;;;;;5044452;28;20111;-72
2023/10/31 12:13:35;;;;;;;0.70;0.20;;;17.20;99.90;;;;;;5039616;28;20056;-72
2023/10/31 12:16:02;;;;;;;0.20;0.15;;;17.10;99.90;;;;;;5046941;28;20469;-73
2023/10/31 12:18:30;;;;;;;1.77;0.22;;;16.50;99.90;;;;;;5042377;28;20378;-73
2023/10/31 12:20:56;;;;;;;0.93;0.60;;;16.30;99.90;;;;;;5050940;28;20384;-72
2023/10/31 12:23:22;;;;;;;4.95;0.47;;;15.80;99.90;;;;;;5048001;28;20043;-71
2023/10/31 12:25:50;;;;;;;1.15;0.50;;;15.40;99.90;;;;;;5051761;28;20032;-76
2023/10/31 12:28:23;;;;;;;0.32;0.15;;;15.10;99.90;;;;;;5051266;28;20033;-72
2023/10/31 12:30:54;;;;;;;0.93;0.38;;;15.30;99.90;;;;;;5043630;28;20123;-71
2023/10/31 12:33:24;;;;;;;0.35;0.20;;;15.60;99.90;;;;;;5052743;28;20021;-73
2023/10/31 12:35:56;;;;;;;0.63;0.20;;;16.20;99.90;;;;;;5049977;28;20100;-72
2023/10/31 12:38:22;;;;;;;0.28;0.28;;;16.90;99.90;;;;;;5050638;28;20124;-73
2023/10/31 12:40:49;;;;;;;3.22;1.27;;;17.80;99.90;;;;;;5050548;28;20032;-77
2023/10/31 12:43:17;;;;;;;1.95;0.40;;;17.60;99.90;;;;;;5060106;28;20088;-74
2023/10/31 12:45:43;;;;;;;3.03;0.63;;;17.20;99.90;;;;;;5033220;28;20167;-74